sensor_id;sensor_type;location;lat;lon;timestamp;P1;durP1;ratioP1;P2;durP2;ratioP2
58101;SDS011;52034;51.926;6.320;2023-12-20T00:00:29;16.05;;;6.10;;
58101;SDS011;52034;51.926;6.320;2023-12-20T00:01:29;19.27;;;6.43;;
58101;SDS011;52034;51.926;6.320;2023-12-20T00:02:30;17.50;;;6.43;;
58101;SDS011;52034;51.926;6.320;2023-12-20T00:03:30;15.83;;;6.73;;
58101;SDS011;52034;51.926;6.320;2023-12-20T00:04:30;17.57;;;7.00;;
58101;SDS011;52034;51.926;6.320;2023-12-20T00:05:31;15.97;;;6.37;;
58101;SDS011;52034;51.926;6.320;2023-12-20T00:06:32;19.42;;;6.43;;
58101;SDS011;52034;51.926;6.320;2023-12-20T00:07:32;14.37;;;6.60;;
58101;SDS011;52034;51.926;6.320;2023-12-20T00:08:33;13.70;;;6.57;;
58101;SDS011;52034;51.926;6.320;2023-12-20T00:09:33;14.60;;;6.00;;
58101;SDS011;52034;51.926;6.320;2023-12-20T00:10:34;17.20;;;6.03;;
58101;SDS011;52034;51.926;6.320;2023-12-20T00:11:34;16.17;;;6.23;;
58101;SDS011;52034;51.926;6.320;2023-12-20T00:12:34;16.33;;;6.33;;
58101;SDS011;52034;51.926;6.320;2023-12-20T00:13:35;16.33;;;6.07;;
58101;SDS011;52034;51.926;6.320;2023-12-20T00:14:35;14.53;;;5.93;;
58101;SDS011;52034;51.926;6.320;2023-12-20T00:15:35;16.77;;;6.80;;
58101;SDS011;52034;51.926;6.320;2023-12-20T00:16:36;11.40;;;6.47;;
58101;SDS011;52034;51.926;6.320;2023-12-20T00:17:36;15.37;;;5.90;;
58101;SDS011;52034;51.926;6.320;2023-12-20T00:18:37;14.33;;;6.47;;
58101;SDS011;52034;51.926;6.320;2023-12-20T00:19:37;15.33;;;6.53;;
58101;SDS011;52034;51.926;6.320;2023-12-20T00:20:37;15.93;;;6.13;;
58101;SDS011;52034;51.926;6.320;2023-12-20T00:21:38;17.50;;;6.10;;
58101;SDS011;52034;51.926;6.320;2023-12-20T00:22:38;11.50;;;5.57;;
58101;SDS011;52034;51.926;6.320;2023-12-20T00:23:39;16.50;;;5.80;;
58101;SDS011;52034;51.926;6.320;2023-12-20T00:24:39;15.03;;;5.83;;
58101;SDS011;52034;51.926;6.320;2023-12-20T00:25:39;14.87;;;6.17;;
58101;SDS011;52034;51.926;6.320;2023-12-20T00:26:40;15.23;;;6.60;;
58101;SDS011;52034;51.926;6.320;2023-12-20T00:27:40;19.53;;;6.30;;
58101;SDS011;52034;51.926;6.320;2023-12-20T00:28:40;17.43;;;6.20;;
58101;SDS011;52034;51.926;6.320;2023-12-20T00:29:42;16.80;;;6.38;;
58101;SDS011;52034;51.926;6.320;2023-12-20T00:30:47;15.68;;;6.18;;
58101;SDS011;52034;51.926;6.320;2023-12-20T00:31:48;18.90;;;6.67;;
58101;SDS011;52034;51.926;6.320;2023-12-20T00:32:48;17.83;;;6.40;;
58101;SDS011;52034;51.926;6.320;2023-12-20T00:33:49;16.97;;;6.07;;
58101;SDS011;52034;51.926;6.320;2023-12-20T00:34:49;20.17;;;6.70;;
58101;SDS011;52034;51.926;6.320;2023-12-20T00:35:50;18.65;;;6.65;;
58101;SDS011;52034;51.926;6.320;2023-12-20T00:36:50;20.53;;;7.40;;
58101;SDS011;52034;51.926;6.320;2023-12-20T00:37:50;16.87;;;6.93;;
58101;SDS011;52034;51.926;6.320;2023-12-20T00:38:51;20.60;;;7.27;;
58101;SDS011;52034;51.926;6.320;2023-12-20T00:39:52;16.43;;;6.00;;
58101;SDS011;52034;51.926;6.320;2023-12-20T00:40:52;20.67;;;7.03;;
58101;SDS011;52034;51.926;6.320;2023-12-20T00:41:52;15.20;;;6.27;;
58101;SDS011;52034;51.926;6.320;2023-12-20T00:42:53;15.87;;;6.27;;
58101;SDS011;52034;51.926;6.320;2023-12-20T00:43:53;16.83;;;6.73;;
58101;SDS011;52034;51.926;6.320;2023-12-20T00:44:53;15.43;;;6.73;;
58101;SDS011;52034;51.926;6.320;2023-12-20T00:45:54;21.87;;;7.23;;
58101;SDS011;52034;51.926;6.320;2023-12-20T00:46:55;21.65;;;6.85;;
58101;SDS011;52034;51.926;6.320;2023-12-20T00:47:55;21.00;;;6.50;;
58101;SDS011;52034;51.926;6.320;2023-12-20T00:48:56;19.97;;;7.13;;
58101;SDS011;52034;51.926;6.320;2023-12-20T00:49:57;19.40;;;6.83;;
58101;SDS011;52034;51.926;6.320;2023-12-20T00:50:57;18.20;;;6.72;;
58101;SDS011;52034;51.926;6.320;2023-12-20T00:51:58;22.23;;;7.97;;
58101;SDS011;52034;51.926;6.320;2023-12-20T00:52:59;22.15;;;7.00;;
58101;SDS011;52034;51.926;6.320;2023-12-20T00:54:00;14.20;;;6.63;;
58101;SDS011;52034;51.926;6.320;2023-12-20T00:55:00;20.33;;;7.27;;
58101;SDS011;52034;51.926;6.320;2023-12-20T00:56:00;19.37;;;7.03;;
58101;SDS011;52034;51.926;6.320;2023-12-20T00:57:01;20.63;;;7.23;;
58101;SDS011;52034;51.926;6.320;2023-12-20T00:58:01;19.07;;;7.30;;
58101;SDS011;52034;51.926;6.320;2023-12-20T00:59:01;16.23;;;6.73;;
58101;SDS011;52034;51.926;6.320;2023-12-20T01:00:02;21.93;;;7.10;;
58101;SDS011;52034;51.926;6.320;2023-12-20T01:01:02;23.37;;;6.87;;
58101;SDS011;52034;51.926;6.320;2023-12-20T01:02:03;25.10;;;6.57;;
58101;SDS011;52034;51.926;6.320;2023-12-20T01:03:04;18.13;;;6.70;;
58101;SDS011;52034;51.926;6.320;2023-12-20T01:04:04;20.80;;;7.63;;
58101;SDS011;52034;51.926;6.320;2023-12-20T01:05:04;23.23;;;7.60;;
58101;SDS011;52034;51.926;6.320;2023-12-20T01:06:07;24.85;;;6.97;;
58101;SDS011;52034;51.926;6.320;2023-12-20T01:07:07;18.50;;;6.93;;
58101;SDS011;52034;51.926;6.320;2023-12-20T01:08:08;22.30;;;7.63;;
58101;SDS011;52034;51.926;6.320;2023-12-20T01:09:08;33.03;;;7.27;;
58101;SDS011;52034;51.926;6.320;2023-12-20T01:10:08;21.37;;;6.90;;
58101;SDS011;52034;51.926;6.320;2023-12-20T01:11:09;20.67;;;7.68;;
58101;SDS011;52034;51.926;6.320;2023-12-20T01:12:10;25.67;;;7.37;;
58101;SDS011;52034;51.926;6.320;2023-12-20T01:13:10;21.27;;;6.30;;
58101;SDS011;52034;51.926;6.320;2023-12-20T01:14:10;25.13;;;7.00;;
58101;SDS011;52034;51.926;6.320;2023-12-20T01:15:12;18.00;;;6.45;;
58101;SDS011;52034;51.926;6.320;2023-12-20T01:16:12;22.60;;;6.90;;
58101;SDS011;52034;51.926;6.320;2023-12-20T01:17:12;23.93;;;7.03;;
58101;SDS011;52034;51.926;6.320;2023-12-20T01:18:13;19.77;;;6.70;;
58101;SDS011;52034;51.926;6.320;2023-12-20T01:19:13;19.57;;;6.73;;
58101;SDS011;52034;51.926;6.320;2023-12-20T01:20:14;22.48;;;7.07;;
58101;SDS011;52034;51.926;6.320;2023-12-20T01:21:15;26.43;;;7.13;;
58101;SDS011;52034;51.926;6.320;2023-12-20T01:22:15;20.07;;;6.40;;
58101;SDS011;52034;51.926;6.320;2023-12-20T01:23:15;22.13;;;6.77;;
58101;SDS011;52034;51.926;6.320;2023-12-20T01:24:16;22.97;;;7.00;;
58101;SDS011;52034;51.926;6.320;2023-12-20T01:25:16;19.13;;;6.57;;
58101;SDS011;52034;51.926;6.320;2023-12-20T01:26:17;20.50;;;5.93;;
58101;SDS011;52034;51.926;6.320;2023-12-20T01:27:17;18.00;;;6.13;;
58101;SDS011;52034;51.926;6.320;2023-12-20T01:28:17;17.40;;;6.83;;
58101;SDS011;52034;51.926;6.320;2023-12-20T01:29:18;17.67;;;5.97;;
58101;SDS011;52034;51.926;6.320;2023-12-20T01:30:18;21.47;;;6.20;;
58101;SDS011;52034;51.926;6.320;2023-12-20T01:31:19;26.00;;;6.87;;
58101;SDS011;52034;51.926;6.320;2023-12-20T01:32:20;21.90;;;6.95;;
58101;SDS011;52034;51.926;6.320;2023-12-20T01:33:20;25.93;;;6.73;;
58101;SDS011;52034;51.926;6.320;2023-12-20T01:34:20;20.40;;;6.93;;
58101;SDS011;52034;51.926;6.320;2023-12-20T01:35:21;24.90;;;6.43;;
58101;SDS011;52034;51.926;6.320;2023-12-20T01:36:21;18.73;;;5.97;;
58101;SDS011;52034;51.926;6.320;2023-12-20T01:37:21;18.37;;;6.03;;
58101;SDS011;52034;51.926;6.320;2023-12-20T01:38:23;22.10;;;6.65;;
58101;SDS011;52034;51.926;6.320;2023-12-20T01:39:24;22.27;;;6.47;;
58101;SDS011;52034;51.926;6.320;2023-12-20T01:40:24;29.07;;;6.60;;
58101;SDS011;52034;51.926;6.320;2023-12-20T01:41:25;22.60;;;6.00;;
58101;SDS011;52034;51.926;6.320;2023-12-20T01:42:25;23.43;;;6.63;;
58101;SDS011;52034;51.926;6.320;2023-12-20T01:43:25;20.77;;;6.53;;
58101;SDS011;52034;51.926;6.320;2023-12-20T01:44:26;21.17;;;6.90;;
58101;SDS011;52034;51.926;6.320;2023-12-20T01:45:27;21.27;;;6.57;;
58101;SDS011;52034;51.926;6.320;2023-12-20T01:46:27;24.63;;;6.43;;
58101;SDS011;52034;51.926;6.320;2023-12-20T01:47:28;23.17;;;6.40;;
58101;SDS011;52034;51.926;6.320;2023-12-20T01:48:28;22.13;;;7.30;;
58101;SDS011;52034;51.926;6.320;2023-12-20T01:49:29;24.48;;;6.88;;
58101;SDS011;52034;51.926;6.320;2023-12-20T01:50:30;23.23;;;6.85;;
58101;SDS011;52034;51.926;6.320;2023-12-20T01:51:31;18.58;;;6.32;;
58101;SDS011;52034;51.926;6.320;2023-12-20T01:52:32;23.17;;;6.55;;
58101;SDS011;52034;51.926;6.320;2023-12-20T01:53:34;21.85;;;6.97;;
58101;SDS011;52034;51.926;6.320;2023-12-20T01:54:35;24.60;;;6.47;;
58101;SDS011;52034;51.926;6.320;2023-12-20T01:55:36;21.92;;;6.50;;
58101;SDS011;52034;51.926;6.320;2023-12-20T01:56:39;28.02;;;7.15;;
58101;SDS011;52034;51.926;6.320;2023-12-20T01:57:43;23.27;;;6.10;;
58101;SDS011;52034;51.926;6.320;2023-12-20T01:58:45;21.55;;;5.82;;
58101;SDS011;52034;51.926;6.320;2023-12-20T01:59:47;19.85;;;6.18;;
58101;SDS011;52034;51.926;6.320;2023-12-20T02:00:48;18.63;;;6.60;;
58101;SDS011;52034;51.926;6.320;2023-12-20T02:01:48;18.75;;;6.20;;
58101;SDS011;52034;51.926;6.320;2023-12-20T02:02:49;28.43;;;6.37;;
58101;SDS011;52034;51.926;6.320;2023-12-20T02:03:52;25.63;;;6.72;;
58101;SDS011;52034;51.926;6.320;2023-12-20T02:04:52;23.90;;;7.80;;
58101;SDS011;52034;51.926;6.320;2023-12-20T02:05:52;21.47;;;6.77;;
58101;SDS011;52034;51.926;6.320;2023-12-20T02:06:53;24.97;;;6.80;;
58101;SDS011;52034;51.926;6.320;2023-12-20T02:07:56;27.27;;;6.32;;
58101;SDS011;52034;51.926;6.320;2023-12-20T02:08:57;18.80;;;6.00;;
58101;SDS011;52034;51.926;6.320;2023-12-20T02:09:57;23.35;;;6.32;;
58101;SDS011;52034;51.926;6.320;2023-12-20T02:10:58;20.57;;;6.53;;
58101;SDS011;52034;51.926;6.320;2023-12-20T02:11:59;20.80;;;6.23;;
58101;SDS011;52034;51.926;6.320;2023-12-20T02:12:59;20.77;;;6.43;;
58101;SDS011;52034;51.926;6.320;2023-12-20T02:14:00;22.90;;;6.50;;
58101;SDS011;52034;51.926;6.320;2023-12-20T02:15:01;23.13;;;6.17;;
58101;SDS011;52034;51.926;6.320;2023-12-20T02:16:01;21.97;;;6.23;;
58101;SDS011;52034;51.926;6.320;2023-12-20T02:17:02;26.13;;;6.88;;
58101;SDS011;52034;51.926;6.320;2023-12-20T02:18:03;22.47;;;6.63;;
58101;SDS011;52034;51.926;6.320;2023-12-20T02:19:05;19.73;;;5.72;;
58101;SDS011;52034;51.926;6.320;2023-12-20T02:20:13;18.35;;;6.32;;
58101;SDS011;52034;51.926;6.320;2023-12-20T02:21:13;21.70;;;6.20;;
58101;SDS011;52034;51.926;6.320;2023-12-20T02:22:15;22.73;;;6.22;;
58101;SDS011;52034;51.926;6.320;2023-12-20T02:23:15;26.17;;;6.20;;
58101;SDS011;52034;51.926;6.320;2023-12-20T02:24:16;24.10;;;6.50;;
58101;SDS011;52034;51.926;6.320;2023-12-20T02:25:17;27.00;;;6.72;;
58101;SDS011;52034;51.926;6.320;2023-12-20T02:26:18;24.90;;;6.33;;
58101;SDS011;52034;51.926;6.320;2023-12-20T02:27:18;23.93;;;6.53;;
58101;SDS011;52034;51.926;6.320;2023-12-20T02:28:19;21.98;;;6.72;;
58101;SDS011;52034;51.926;6.320;2023-12-20T02:29:21;22.05;;;6.38;;
58101;SDS011;52034;51.926;6.320;2023-12-20T02:30:22;25.00;;;6.80;;
58101;SDS011;52034;51.926;6.320;2023-12-20T02:31:23;26.23;;;6.97;;
58101;SDS011;52034;51.926;6.320;2023-12-20T02:32:23;30.58;;;7.30;;
58101;SDS011;52034;51.926;6.320;2023-12-20T02:33:27;23.70;;;5.60;;
58101;SDS011;52034;51.926;6.320;2023-12-20T02:34:28;24.87;;;6.30;;
58101;SDS011;52034;51.926;6.320;2023-12-20T02:35:29;17.35;;;6.15;;
58101;SDS011;52034;51.926;6.320;2023-12-20T02:36:29;25.90;;;6.40;;
58101;SDS011;52034;51.926;6.320;2023-12-20T02:37:29;23.43;;;6.37;;
58101;SDS011;52034;51.926;6.320;2023-12-20T02:38:30;26.13;;;7.07;;
58101;SDS011;52034;51.926;6.320;2023-12-20T02:39:30;24.37;;;6.97;;
58101;SDS011;52034;51.926;6.320;2023-12-20T02:40:30;21.50;;;6.60;;
58101;SDS011;52034;51.926;6.320;2023-12-20T02:41:31;22.73;;;7.13;;
58101;SDS011;52034;51.926;6.320;2023-12-20T02:42:31;16.83;;;6.80;;
58101;SDS011;52034;51.926;6.320;2023-12-20T02:43:31;24.10;;;6.70;;
58101;SDS011;52034;51.926;6.320;2023-12-20T02:44:32;23.35;;;6.93;;
58101;SDS011;52034;51.926;6.320;2023-12-20T02:45:33;25.30;;;6.80;;
58101;SDS011;52034;51.926;6.320;2023-12-20T02:46:33;26.77;;;8.23;;
58101;SDS011;52034;51.926;6.320;2023-12-20T02:47:33;25.40;;;7.80;;
58101;SDS011;52034;51.926;6.320;2023-12-20T02:48:34;22.33;;;7.40;;
58101;SDS011;52034;51.926;6.320;2023-12-20T02:49:34;26.33;;;7.37;;
58101;SDS011;52034;51.926;6.320;2023-12-20T02:50:34;23.73;;;7.37;;
58101;SDS011;52034;51.926;6.320;2023-12-20T02:51:35;29.07;;;8.90;;
58101;SDS011;52034;51.926;6.320;2023-12-20T02:52:38;24.95;;;7.75;;
58101;SDS011;52034;51.926;6.320;2023-12-20T02:53:38;28.47;;;7.90;;
58101;SDS011;52034;51.926;6.320;2023-12-20T02:54:39;31.90;;;8.63;;
58101;SDS011;52034;51.926;6.320;2023-12-20T02:55:39;24.40;;;8.00;;
58101;SDS011;52034;51.926;6.320;2023-12-20T02:56:40;26.20;;;8.70;;
58101;SDS011;52034;51.926;6.320;2023-12-20T02:57:40;30.23;;;8.60;;
58101;SDS011;52034;51.926;6.320;2023-12-20T02:58:41;24.83;;;8.77;;
58101;SDS011;52034;51.926;6.320;2023-12-20T02:59:42;22.60;;;8.87;;
58101;SDS011;52034;51.926;6.320;2023-12-20T03:00:42;25.43;;;8.40;;
58101;SDS011;52034;51.926;6.320;2023-12-20T03:01:45;30.87;;;9.77;;
58101;SDS011;52034;51.926;6.320;2023-12-20T03:02:46;27.70;;;8.63;;
58101;SDS011;52034;51.926;6.320;2023-12-20T03:03:46;25.03;;;9.13;;
58101;SDS011;52034;51.926;6.320;2023-12-20T03:04:47;30.63;;;8.97;;
58101;SDS011;52034;51.926;6.320;2023-12-20T03:05:47;28.20;;;9.20;;
58101;SDS011;52034;51.926;6.320;2023-12-20T03:06:48;25.73;;;9.33;;
58101;SDS011;52034;51.926;6.320;2023-12-20T03:07:48;25.57;;;9.03;;
58101;SDS011;52034;51.926;6.320;2023-12-20T03:08:48;25.37;;;8.97;;
58101;SDS011;52034;51.926;6.320;2023-12-20T03:09:49;30.03;;;8.97;;
58101;SDS011;52034;51.926;6.320;2023-12-20T03:10:49;28.97;;;8.97;;
58101;SDS011;52034;51.926;6.320;2023-12-20T03:11:50;34.03;;;9.23;;
58101;SDS011;52034;51.926;6.320;2023-12-20T03:12:50;28.30;;;8.57;;
58101;SDS011;52034;51.926;6.320;2023-12-20T03:13:51;33.30;;;8.80;;
58101;SDS011;52034;51.926;6.320;2023-12-20T03:14:51;24.93;;;8.00;;
58101;SDS011;52034;51.926;6.320;2023-12-20T03:15:51;29.43;;;9.80;;
58101;SDS011;52034;51.926;6.320;2023-12-20T03:16:52;25.07;;;8.30;;
58101;SDS011;52034;51.926;6.320;2023-12-20T03:17:52;24.87;;;8.33;;
58101;SDS011;52034;51.926;6.320;2023-12-20T03:18:52;27.53;;;8.57;;
58101;SDS011;52034;51.926;6.320;2023-12-20T03:19:53;26.60;;;9.50;;
58101;SDS011;52034;51.926;6.320;2023-12-20T03:20:54;26.67;;;8.63;;
58101;SDS011;52034;51.926;6.320;2023-12-20T03:21:54;26.80;;;8.60;;
58101;SDS011;52034;51.926;6.320;2023-12-20T03:22:54;26.03;;;9.00;;
58101;SDS011;52034;51.926;6.320;2023-12-20T03:23:55;27.47;;;9.37;;
58101;SDS011;52034;51.926;6.320;2023-12-20T03:24:55;29.37;;;9.30;;
58101;SDS011;52034;51.926;6.320;2023-12-20T03:25:55;31.00;;;9.67;;
58101;SDS011;52034;51.926;6.320;2023-12-20T03:26:56;27.35;;;9.20;;
58101;SDS011;52034;51.926;6.320;2023-12-20T03:27:56;26.30;;;9.03;;
58101;SDS011;52034;51.926;6.320;2023-12-20T03:28:57;29.53;;;8.20;;
58101;SDS011;52034;51.926;6.320;2023-12-20T03:29:57;28.83;;;8.83;;
58101;SDS011;52034;51.926;6.320;2023-12-20T03:30:58;26.80;;;9.40;;
58101;SDS011;52034;51.926;6.320;2023-12-20T03:31:58;25.10;;;8.90;;
58101;SDS011;52034;51.926;6.320;2023-12-20T03:32:58;20.97;;;8.67;;
58101;SDS011;52034;51.926;6.320;2023-12-20T03:33:59;31.30;;;8.50;;
58101;SDS011;52034;51.926;6.320;2023-12-20T03:34:59;28.53;;;8.50;;
58101;SDS011;52034;51.926;6.320;2023-12-20T03:35:59;26.37;;;8.77;;
58101;SDS011;52034;51.926;6.320;2023-12-20T03:37:00;23.10;;;8.40;;
58101;SDS011;52034;51.926;6.320;2023-12-20T03:38:00;24.07;;;8.37;;
58101;SDS011;52034;51.926;6.320;2023-12-20T03:39:00;28.80;;;8.63;;
58101;SDS011;52034;51.926;6.320;2023-12-20T03:40:01;26.53;;;9.50;;
58101;SDS011;52034;51.926;6.320;2023-12-20T03:41:02;26.88;;;8.02;;
58101;SDS011;52034;51.926;6.320;2023-12-20T03:42:02;21.13;;;7.50;;
58101;SDS011;52034;51.926;6.320;2023-12-20T03:43:03;27.80;;;7.97;;
58101;SDS011;52034;51.926;6.320;2023-12-20T03:44:03;25.73;;;8.20;;
58101;SDS011;52034;51.926;6.320;2023-12-20T03:45:04;29.87;;;8.63;;
58101;SDS011;52034;51.926;6.320;2023-12-20T03:46:05;27.83;;;8.30;;
58101;SDS011;52034;51.926;6.320;2023-12-20T03:47:05;24.20;;;7.90;;
58101;SDS011;52034;51.926;6.320;2023-12-20T03:48:06;28.05;;;8.68;;
58101;SDS011;52034;51.926;6.320;2023-12-20T03:49:07;23.33;;;8.30;;
58101;SDS011;52034;51.926;6.320;2023-12-20T03:50:07;28.20;;;8.57;;
58101;SDS011;52034;51.926;6.320;2023-12-20T03:51:08;27.67;;;8.33;;
58101;SDS011;52034;51.926;6.320;2023-12-20T03:52:08;30.00;;;8.23;;
58101;SDS011;52034;51.926;6.320;2023-12-20T03:53:08;29.77;;;8.07;;
58101;SDS011;52034;51.926;6.320;2023-12-20T03:54:09;29.30;;;8.23;;
58101;SDS011;52034;51.926;6.320;2023-12-20T03:55:09;27.57;;;7.93;;
58101;SDS011;52034;51.926;6.320;2023-12-20T03:56:09;28.50;;;8.13;;
58101;SDS011;52034;51.926;6.320;2023-12-20T03:57:10;29.17;;;8.30;;
58101;SDS011;52034;51.926;6.320;2023-12-20T03:58:10;25.53;;;7.83;;
58101;SDS011;52034;51.926;6.320;2023-12-20T03:59:11;29.00;;;8.90;;
58101;SDS011;52034;51.926;6.320;2023-12-20T04:00:11;27.47;;;8.40;;
58101;SDS011;52034;51.926;6.320;2023-12-20T04:01:15;23.17;;;7.28;;
58101;SDS011;52034;51.926;6.320;2023-12-20T04:02:15;31.23;;;9.47;;
58101;SDS011;52034;51.926;6.320;2023-12-20T04:03:15;29.97;;;8.17;;
58101;SDS011;52034;51.926;6.320;2023-12-20T04:04:16;27.13;;;8.37;;
58101;SDS011;52034;51.926;6.320;2023-12-20T04:05:16;22.47;;;8.10;;
58101;SDS011;52034;51.926;6.320;2023-12-20T04:06:17;29.30;;;8.43;;
58101;SDS011;52034;51.926;6.320;2023-12-20T04:07:18;20.13;;;7.50;;
58101;SDS011;52034;51.926;6.320;2023-12-20T04:08:18;22.33;;;7.50;;
58101;SDS011;52034;51.926;6.320;2023-12-20T04:09:18;25.77;;;8.20;;
58101;SDS011;52034;51.926;6.320;2023-12-20T04:10:19;32.97;;;8.40;;
58101;SDS011;52034;51.926;6.320;2023-12-20T04:11:19;25.40;;;7.50;;
58101;SDS011;52034;51.926;6.320;2023-12-20T04:12:19;29.53;;;8.07;;
58101;SDS011;52034;51.926;6.320;2023-12-20T04:13:20;32.10;;;8.90;;
58101;SDS011;52034;51.926;6.320;2023-12-20T04:14:20;28.40;;;7.83;;
58101;SDS011;52034;51.926;6.320;2023-12-20T04:15:21;28.83;;;7.27;;
58101;SDS011;52034;51.926;6.320;2023-12-20T04:16:21;23.87;;;7.60;;
58101;SDS011;52034;51.926;6.320;2023-12-20T04:17:21;25.20;;;8.10;;
58101;SDS011;52034;51.926;6.320;2023-12-20T04:18:24;30.70;;;7.82;;
58101;SDS011;52034;51.926;6.320;2023-12-20T04:19:25;24.60;;;7.27;;
58101;SDS011;52034;51.926;6.320;2023-12-20T04:20:25;29.10;;;7.53;;
58101;SDS011;52034;51.926;6.320;2023-12-20T04:21:25;32.93;;;7.80;;
58101;SDS011;52034;51.926;6.320;2023-12-20T04:22:26;27.50;;;8.20;;
58101;SDS011;52034;51.926;6.320;2023-12-20T04:23:26;21.90;;;8.13;;
58101;SDS011;52034;51.926;6.320;2023-12-20T04:24:27;23.70;;;7.90;;
58101;SDS011;52034;51.926;6.320;2023-12-20T04:25:27;27.37;;;8.07;;
58101;SDS011;52034;51.926;6.320;2023-12-20T04:26:27;26.50;;;7.97;;
58101;SDS011;52034;51.926;6.320;2023-12-20T04:28:29;30.35;;;8.32;;
58101;SDS011;52034;51.926;6.320;2023-12-20T04:29:30;25.40;;;8.03;;
58101;SDS011;52034;51.926;6.320;2023-12-20T04:30:30;25.30;;;7.60;;
58101;SDS011;52034;51.926;6.320;2023-12-20T04:31:31;28.37;;;8.20;;
58101;SDS011;52034;51.926;6.320;2023-12-20T04:32:31;25.80;;;7.73;;
58101;SDS011;52034;51.926;6.320;2023-12-20T04:33:31;28.07;;;8.40;;
58101;SDS011;52034;51.926;6.320;2023-12-20T04:34:32;29.00;;;7.67;;
58101;SDS011;52034;51.926;6.320;2023-12-20T04:35:32;25.80;;;7.63;;
58101;SDS011;52034;51.926;6.320;2023-12-20T04:36:32;32.27;;;8.37;;
58101;SDS011;52034;51.926;6.320;2023-12-20T04:37:33;28.13;;;8.03;;
58101;SDS011;52034;51.926;6.320;2023-12-20T04:38:33;27.60;;;7.83;;
58101;SDS011;52034;51.926;6.320;2023-12-20T04:39:33;36.43;;;9.27;;
58101;SDS011;52034;51.926;6.320;2023-12-20T04:40:34;24.60;;;7.97;;
58101;SDS011;52034;51.926;6.320;2023-12-20T04:41:34;26.03;;;8.23;;
58101;SDS011;52034;51.926;6.320;2023-12-20T04:42:34;28.20;;;7.93;;
58101;SDS011;52034;51.926;6.320;2023-12-20T04:43:35;27.03;;;7.83;;
58101;SDS011;52034;51.926;6.320;2023-12-20T04:44:35;22.57;;;7.53;;
58101;SDS011;52034;51.926;6.320;2023-12-20T04:45:36;28.50;;;8.40;;
58101;SDS011;52034;51.926;6.320;2023-12-20T04:46:36;26.93;;;7.37;;
58101;SDS011;52034;51.926;6.320;2023-12-20T04:47:37;34.80;;;8.87;;
58101;SDS011;52034;51.926;6.320;2023-12-20T04:48:37;32.03;;;7.87;;
58101;SDS011;52034;51.926;6.320;2023-12-20T04:49:37;31.03;;;8.73;;
58101;SDS011;52034;51.926;6.320;2023-12-20T04:50:38;33.00;;;8.97;;
58101;SDS011;52034;51.926;6.320;2023-12-20T04:51:38;30.13;;;7.73;;
58101;SDS011;52034;51.926;6.320;2023-12-20T04:52:38;27.37;;;7.90;;
58101;SDS011;52034;51.926;6.320;2023-12-20T04:53:39;29.30;;;7.80;;
58101;SDS011;52034;51.926;6.320;2023-12-20T04:54:39;30.63;;;8.37;;
58101;SDS011;52034;51.926;6.320;2023-12-20T04:55:40;27.63;;;8.20;;
58101;SDS011;52034;51.926;6.320;2023-12-20T04:56:40;29.27;;;8.17;;
58101;SDS011;52034;51.926;6.320;2023-12-20T04:57:41;32.55;;;8.15;;
58101;SDS011;52034;51.926;6.320;2023-12-20T04:58:42;28.35;;;8.30;;
58101;SDS011;52034;51.926;6.320;2023-12-20T04:59:43;25.17;;;7.53;;
58101;SDS011;52034;51.926;6.320;2023-12-20T05:00:43;28.53;;;7.83;;
58101;SDS011;52034;51.926;6.320;2023-12-20T05:01:44;29.43;;;7.97;;
58101;SDS011;52034;51.926;6.320;2023-12-20T05:02:44;25.40;;;7.73;;
58101;SDS011;52034;51.926;6.320;2023-12-20T05:03:44;30.67;;;7.83;;
58101;SDS011;52034;51.926;6.320;2023-12-20T05:04:45;28.43;;;8.03;;
58101;SDS011;52034;51.926;6.320;2023-12-20T05:05:46;23.92;;;7.85;;
58101;SDS011;52034;51.926;6.320;2023-12-20T05:06:46;26.70;;;8.27;;
58101;SDS011;52034;51.926;6.320;2023-12-20T05:07:46;34.20;;;7.83;;
58101;SDS011;52034;51.926;6.320;2023-12-20T05:08:47;29.20;;;8.80;;
58101;SDS011;52034;51.926;6.320;2023-12-20T05:09:47;32.80;;;7.63;;
58101;SDS011;52034;51.926;6.320;2023-12-20T05:10:48;29.90;;;8.02;;
58101;SDS011;52034;51.926;6.320;2023-12-20T05:11:49;31.63;;;8.20;;
58101;SDS011;52034;51.926;6.320;2023-12-20T05:12:49;34.53;;;8.20;;
58101;SDS011;52034;51.926;6.320;2023-12-20T05:13:49;25.67;;;7.50;;
58101;SDS011;52034;51.926;6.320;2023-12-20T05:14:51;30.07;;;7.93;;
58101;SDS011;52034;51.926;6.320;2023-12-20T05:15:52;33.15;;;7.82;;
58101;SDS011;52034;51.926;6.320;2023-12-20T05:16:52;29.93;;;7.57;;
58101;SDS011;52034;51.926;6.320;2023-12-20T05:17:53;30.43;;;7.90;;
58101;SDS011;52034;51.926;6.320;2023-12-20T05:18:53;28.00;;;8.03;;
58101;SDS011;52034;51.926;6.320;2023-12-20T05:19:53;26.23;;;7.87;;
58101;SDS011;52034;51.926;6.320;2023-12-20T05:20:54;29.33;;;8.47;;
58101;SDS011;52034;51.926;6.320;2023-12-20T05:21:54;24.93;;;8.03;;
58101;SDS011;52034;51.926;6.320;2023-12-20T05:22:55;27.50;;;8.67;;
58101;SDS011;52034;51.926;6.320;2023-12-20T05:23:55;31.70;;;9.13;;
58101;SDS011;52034;51.926;6.320;2023-12-20T05:24:55;24.47;;;8.07;;
58101;SDS011;52034;51.926;6.320;2023-12-20T05:25:56;33.00;;;9.37;;
58101;SDS011;52034;51.926;6.320;2023-12-20T05:26:56;34.73;;;7.73;;
58101;SDS011;52034;51.926;6.320;2023-12-20T05:27:56;32.50;;;7.90;;
58101;SDS011;52034;51.926;6.320;2023-12-20T05:28:57;36.90;;;8.50;;
58101;SDS011;52034;51.926;6.320;2023-12-20T05:29:57;30.63;;;8.60;;
58101;SDS011;52034;51.926;6.320;2023-12-20T05:30:58;36.03;;;8.80;;
58101;SDS011;52034;51.926;6.320;2023-12-20T05:31:58;30.00;;;8.10;;
58101;SDS011;52034;51.926;6.320;2023-12-20T05:32:59;33.87;;;7.70;;
58101;SDS011;52034;51.926;6.320;2023-12-20T05:33:59;25.63;;;7.87;;
58101;SDS011;52034;51.926;6.320;2023-12-20T05:35:00;28.20;;;8.37;;
58101;SDS011;52034;51.926;6.320;2023-12-20T05:36:00;33.13;;;8.20;;
58101;SDS011;52034;51.926;6.320;2023-12-20T05:37:00;29.70;;;7.73;;
58101;SDS011;52034;51.926;6.320;2023-12-20T05:38:01;27.60;;;8.20;;
58101;SDS011;52034;51.926;6.320;2023-12-20T05:39:02;28.77;;;8.20;;
58101;SDS011;52034;51.926;6.320;2023-12-20T05:40:06;33.80;;;8.30;;
58101;SDS011;52034;51.926;6.320;2023-12-20T05:41:06;28.90;;;8.00;;
58101;SDS011;52034;51.926;6.320;2023-12-20T05:42:07;28.37;;;8.33;;
58101;SDS011;52034;51.926;6.320;2023-12-20T05:43:07;33.00;;;7.67;;
58101;SDS011;52034;51.926;6.320;2023-12-20T05:44:07;34.90;;;8.23;;
58101;SDS011;52034;51.926;6.320;2023-12-20T05:45:08;34.07;;;7.90;;
58101;SDS011;52034;51.926;6.320;2023-12-20T05:46:12;24.60;;;7.97;;
58101;SDS011;52034;51.926;6.320;2023-12-20T05:47:12;29.13;;;7.72;;
58101;SDS011;52034;51.926;6.320;2023-12-20T05:48:12;36.53;;;8.70;;
58101;SDS011;52034;51.926;6.320;2023-12-20T05:49:13;30.20;;;7.17;;
58101;SDS011;52034;51.926;6.320;2023-12-20T05:50:14;28.57;;;8.63;;
58101;SDS011;52034;51.926;6.320;2023-12-20T05:51:15;25.33;;;7.63;;
58101;SDS011;52034;51.926;6.320;2023-12-20T05:52:15;30.87;;;8.13;;
58101;SDS011;52034;51.926;6.320;2023-12-20T05:53:15;32.03;;;7.87;;
58101;SDS011;52034;51.926;6.320;2023-12-20T05:54:16;24.27;;;7.40;;
58101;SDS011;52034;51.926;6.320;2023-12-20T05:55:16;39.93;;;8.57;;
58101;SDS011;52034;51.926;6.320;2023-12-20T05:56:17;29.40;;;7.50;;
58101;SDS011;52034;51.926;6.320;2023-12-20T05:57:17;23.43;;;7.57;;
58101;SDS011;52034;51.926;6.320;2023-12-20T05:58:17;28.43;;;7.77;;
58101;SDS011;52034;51.926;6.320;2023-12-20T05:59:18;26.23;;;7.40;;
58101;SDS011;52034;51.926;6.320;2023-12-20T06:00:18;28.10;;;7.83;;